sensor_id;sensor_type;location;lat;lon;timestamp;P1;durP1;ratioP1;P2;durP2;ratioP2
30173;SDS011;16985;50.814;8.530;2022-11-20T00:01:20;27.77;;;16.42;;
30173;SDS011;16985;50.814;8.530;2022-11-20T00:03:52;28.45;;;16.30;;
30173;SDS011;16985;50.814;8.530;2022-11-20T00:06:20;25.45;;;15.63;;
30173;SDS011;16985;50.814;8.530;2022-11-20T00:08:47;32.00;;;18.42;;
30173;SDS011;16985;50.814;8.530;2022-11-20T00:11:18;28.73;;;16.77;;
30173;SDS011;16985;50.814;8.530;2022-11-20T00:13:46;30.25;;;17.27;;
30173;SDS011;16985;50.814;8.530;2022-11-20T00:16:15;29.50;;;16.40;;
30173;SDS011;16985;50.814;8.530;2022-11-20T00:18:45;25.40;;;15.30;;
30173;SDS011;16985;50.814;8.530;2022-11-20T00:21:15;27.65;;;15.93;;
30173;SDS011;16985;50.814;8.530;2022-11-20T00:23:52;26.58;;;15.43;;
30173;SDS011;16985;50.814;8.530;2022-11-20T00:26:20;28.70;;;17.42;;
30173;SDS011;16985;50.814;8.530;2022-11-20T00:28:49;27.73;;;15.98;;
30173;SDS011;16985;50.814;8.530;2022-11-20T00:31:20;23.48;;;14.23;;
30173;SDS011;16985;50.814;8.530;2022-11-20T00:33:47;27.25;;;15.50;;
30173;SDS011;16985;50.814;8.530;2022-11-20T00:36:17;25.90;;;15.02;;
30173;SDS011;16985;50.814;8.530;2022-11-20T00:38:55;29.30;;;16.58;;
30173;SDS011;16985;50.814;8.530;2022-11-20T00:41:23;29.92;;;18.42;;
30173;SDS011;16985;50.814;8.530;2022-11-20T00:43:52;33.35;;;17.38;;
30173;SDS011;16985;50.814;8.530;2022-11-20T00:46:19;30.35;;;16.67;;
30173;SDS011;16985;50.814;8.530;2022-11-20T00:51:17;30.10;;;16.30;;
30173;SDS011;16985;50.814;8.530;2022-11-20T00:53:45;26.02;;;16.33;;
30173;SDS011;16985;50.814;8.530;2022-11-20T00:56:12;29.27;;;17.33;;
30173;SDS011;16985;50.814;8.530;2022-11-20T00:58:41;29.75;;;18.05;;
30173;SDS011;16985;50.814;8.530;2022-11-20T01:01:13;33.88;;;16.25;;
30173;SDS011;16985;50.814;8.530;2022-11-20T01:03:51;27.40;;;15.30;;
30173;SDS011;16985;50.814;8.530;2022-11-20T01:06:20;29.27;;;16.63;;
30173;SDS011;16985;50.814;8.530;2022-11-20T01:08:53;29.48;;;16.77;;
30173;SDS011;16985;50.814;8.530;2022-11-20T01:11:24;30.55;;;16.90;;
30173;SDS011;16985;50.814;8.530;2022-11-20T01:13:56;29.17;;;16.30;;
30173;SDS011;16985;50.814;8.530;2022-11-20T01:16:25;29.45;;;16.05;;
30173;SDS011;16985;50.814;8.530;2022-11-20T01:18:54;29.05;;;16.52;;
30173;SDS011;16985;50.814;8.530;2022-11-20T01:21:23;27.67;;;15.90;;
30173;SDS011;16985;50.814;8.530;2022-11-20T01:23:58;29.17;;;15.93;;
30173;SDS011;16985;50.814;8.530;2022-11-20T01:26:25;26.73;;;15.82;;
30173;SDS011;16985;50.814;8.530;2022-11-20T01:28:58;28.85;;;16.73;;
30173;SDS011;16985;50.814;8.530;2022-11-20T01:31:26;30.77;;;17.08;;
30173;SDS011;16985;50.814;8.530;2022-11-20T01:33:56;26.40;;;16.75;;
30173;SDS011;16985;50.814;8.530;2022-11-20T01:36:25;29.40;;;16.42;;
30173;SDS011;16985;50.814;8.530;2022-11-20T01:38:54;28.55;;;16.48;;
30173;SDS011;16985;50.814;8.530;2022-11-20T01:41:25;28.70;;;16.25;;
30173;SDS011;16985;50.814;8.530;2022-11-20T01:44:12;24.97;;;16.03;;
30173;SDS011;16985;50.814;8.530;2022-11-20T01:46:42;27.30;;;15.98;;
30173;SDS011;16985;50.814;8.530;2022-11-20T01:49:28;28.90;;;16.77;;
30173;SDS011;16985;50.814;8.530;2022-11-20T01:52:01;28.98;;;17.08;;
30173;SDS011;16985;50.814;8.530;2022-11-20T01:54:33;29.15;;;17.40;;
30173;SDS011;16985;50.814;8.530;2022-11-20T01:57:21;28.73;;;16.23;;
30173;SDS011;16985;50.814;8.530;2022-11-20T01:59:54;29.08;;;17.80;;
30173;SDS011;16985;50.814;8.530;2022-11-20T02:02:37;31.95;;;16.95;;
30173;SDS011;16985;50.814;8.530;2022-11-20T02:05:13;28.58;;;16.52;;
30173;SDS011;16985;50.814;8.530;2022-11-20T02:07:49;28.05;;;15.98;;
30173;SDS011;16985;50.814;8.530;2022-11-20T02:10:15;29.73;;;15.98;;
30173;SDS011;16985;50.814;8.530;2022-11-20T02:12:41;24.10;;;14.43;;
30173;SDS011;16985;50.814;8.530;2022-11-20T02:15:26;29.33;;;16.63;;
30173;SDS011;16985;50.814;8.530;2022-11-20T02:17:52;29.95;;;16.75;;
30173;SDS011;16985;50.814;8.530;2022-11-20T02:20:19;31.08;;;16.60;;
30173;SDS011;16985;50.814;8.530;2022-11-20T02:22:48;28.75;;;15.45;;
30173;SDS011;16985;50.814;8.530;2022-11-20T02:25:25;29.27;;;16.88;;
30173;SDS011;16985;50.814;8.530;2022-11-20T02:27:52;30.33;;;16.48;;
30173;SDS011;16985;50.814;8.530;2022-11-20T02:30:19;29.25;;;16.90;;
30173;SDS011;16985;50.814;8.530;2022-11-20T02:32:45;28.63;;;15.73;;
30173;SDS011;16985;50.814;8.530;2022-11-20T02:37:42;32.30;;;18.05;;
30173;SDS011;16985;50.814;8.530;2022-11-20T02:40:09;28.13;;;15.30;;
30173;SDS011;16985;50.814;8.530;2022-11-20T02:42:36;29.20;;;17.25;;
30173;SDS011;16985;50.814;8.530;2022-11-20T02:45:03;28.00;;;16.10;;
30173;SDS011;16985;50.814;8.530;2022-11-20T02:47:30;29.80;;;16.90;;
30173;SDS011;16985;50.814;8.530;2022-11-20T02:49:56;28.85;;;17.35;;
30173;SDS011;16985;50.814;8.530;2022-11-20T02:52:22;25.08;;;16.05;;
30173;SDS011;16985;50.814;8.530;2022-11-20T02:54:48;29.48;;;16.40;;
30173;SDS011;16985;50.814;8.530;2022-11-20T02:57:15;26.13;;;15.82;;
30173;SDS011;16985;50.814;8.530;2022-11-20T02:59:41;27.08;;;15.60;;
30173;SDS011;16985;50.814;8.530;2022-11-20T03:02:07;26.65;;;16.17;;
30173;SDS011;16985;50.814;8.530;2022-11-20T03:04:33;29.13;;;17.13;;
30173;SDS011;16985;50.814;8.530;2022-11-20T03:06:59;26.33;;;14.48;;
30173;SDS011;16985;50.814;8.530;2022-11-20T03:09:25;25.27;;;15.07;;
30173;SDS011;16985;50.814;8.530;2022-11-20T03:11:51;27.75;;;15.18;;
30173;SDS011;16985;50.814;8.530;2022-11-20T03:14:17;27.83;;;15.98;;
30173;SDS011;16985;50.814;8.530;2022-11-20T03:16:44;27.02;;;16.05;;
30173;SDS011;16985;50.814;8.530;2022-11-20T03:19:11;27.02;;;15.75;;
30173;SDS011;16985;50.814;8.530;2022-11-20T03:21:37;30.70;;;16.45;;
30173;SDS011;16985;50.814;8.530;2022-11-20T03:24:03;29.73;;;15.73;;
30173;SDS011;16985;50.814;8.530;2022-11-20T03:26:29;23.05;;;14.48;;
30173;SDS011;16985;50.814;8.530;2022-11-20T03:28:59;27.30;;;15.95;;
30173;SDS011;16985;50.814;8.530;2022-11-20T03:31:29;26.85;;;14.57;;
30173;SDS011;16985;50.814;8.530;2022-11-20T03:33:58;26.73;;;16.30;;
30173;SDS011;16985;50.814;8.530;2022-11-20T03:36:25;26.48;;;15.80;;
30173;SDS011;16985;50.814;8.530;2022-11-20T03:38:53;31.77;;;16.45;;
30173;SDS011;16985;50.814;8.530;2022-11-20T03:41:21;28.65;;;15.93;;
30173;SDS011;16985;50.814;8.530;2022-11-20T03:43:55;30.73;;;16.73;;
30173;SDS011;16985;50.814;8.530;2022-11-20T03:46:22;27.95;;;15.70;;
30173;SDS011;16985;50.814;8.530;2022-11-20T03:48:49;28.33;;;16.63;;
30173;SDS011;16985;50.814;8.530;2022-11-20T03:51:19;30.30;;;16.80;;
30173;SDS011;16985;50.814;8.530;2022-11-20T03:53:47;26.73;;;15.55;;
30173;SDS011;16985;50.814;8.530;2022-11-20T03:56:15;27.48;;;17.33;;
30173;SDS011;16985;50.814;8.530;2022-11-20T03:58:48;28.20;;;15.15;;
30173;SDS011;16985;50.814;8.530;2022-11-20T04:01:15;27.65;;;15.35;;
30173;SDS011;16985;50.814;8.530;2022-11-20T04:03:46;25.30;;;15.70;;
30173;SDS011;16985;50.814;8.530;2022-11-20T04:06:13;29.23;;;16.27;;
30173;SDS011;16985;50.814;8.530;2022-11-20T04:08:41;28.75;;;15.93;;
30173;SDS011;16985;50.814;8.530;2022-11-20T04:11:08;25.73;;;15.63;;
30173;SDS011;16985;50.814;8.530;2022-11-20T04:13:47;29.38;;;16.10;;
30173;SDS011;16985;50.814;8.530;2022-11-20T04:16:16;28.35;;;15.52;;
30173;SDS011;16985;50.814;8.530;2022-11-20T04:18:42;30.75;;;16.17;;
30173;SDS011;16985;50.814;8.530;2022-11-20T04:21:09;27.35;;;16.10;;
30173;SDS011;16985;50.814;8.530;2022-11-20T04:23:35;28.13;;;16.48;;
30173;SDS011;16985;50.814;8.530;2022-11-20T04:26:09;28.80;;;16.10;;
30173;SDS011;16985;50.814;8.530;2022-11-20T04:28:36;27.85;;;16.67;;
30173;SDS011;16985;50.814;8.530;2022-11-20T04:31:10;31.63;;;16.80;;
30173;SDS011;16985;50.814;8.530;2022-11-20T04:38:38;26.15;;;15.65;;
30173;SDS011;16985;50.814;8.530;2022-11-20T04:41:05;26.85;;;16.05;;
30173;SDS011;16985;50.814;8.530;2022-11-20T04:43:33;28.80;;;16.63;;
30173;SDS011;16985;50.814;8.530;2022-11-20T04:45:59;26.95;;;15.95;;
30173;SDS011;16985;50.814;8.530;2022-11-20T04:48:26;33.72;;;17.60;;
30173;SDS011;16985;50.814;8.530;2022-11-20T04:50:52;31.08;;;17.08;;
30173;SDS011;16985;50.814;8.530;2022-11-20T04:53:19;31.65;;;18.65;;
30173;SDS011;16985;50.814;8.530;2022-11-20T04:55:46;31.98;;;16.83;;
30173;SDS011;16985;50.814;8.530;2022-11-20T04:58:12;27.60;;;17.10;;
30173;SDS011;16985;50.814;8.530;2022-11-20T05:00:39;29.88;;;17.83;;
30173;SDS011;16985;50.814;8.530;2022-11-20T05:03:05;31.08;;;17.13;;
30173;SDS011;16985;50.814;8.530;2022-11-20T05:05:31;28.08;;;16.63;;
30173;SDS011;16985;50.814;8.530;2022-11-20T05:08:00;26.23;;;16.42;;
30173;SDS011;16985;50.814;8.530;2022-11-20T05:10:26;26.02;;;16.35;;
30173;SDS011;16985;50.814;8.530;2022-11-20T05:12:53;33.00;;;18.48;;
30173;SDS011;16985;50.814;8.530;2022-11-20T05:15:19;33.47;;;18.15;;
30173;SDS011;16985;50.814;8.530;2022-11-20T05:17:48;34.35;;;17.67;;
30173;SDS011;16985;50.814;8.530;2022-11-20T05:20:15;30.02;;;17.52;;
30173;SDS011;16985;50.814;8.530;2022-11-20T05:22:42;31.90;;;17.95;;
30173;SDS011;16985;50.814;8.530;2022-11-20T05:25:08;31.85;;;18.67;;
30173;SDS011;16985;50.814;8.530;2022-11-20T05:27:35;29.60;;;16.85;;
30173;SDS011;16985;50.814;8.530;2022-11-20T05:30:01;31.98;;;18.02;;
30173;SDS011;16985;50.814;8.530;2022-11-20T05:32:28;27.77;;;16.13;;
30173;SDS011;16985;50.814;8.530;2022-11-20T05:34:54;30.25;;;17.48;;
30173;SDS011;16985;50.814;8.530;2022-11-20T05:37:21;31.80;;;17.25;;
30173;SDS011;16985;50.814;8.530;2022-11-20T05:39:47;31.52;;;17.35;;
30173;SDS011;16985;50.814;8.530;2022-11-20T05:42:13;33.28;;;18.15;;
30173;SDS011;16985;50.814;8.530;2022-11-20T05:44:58;30.55;;;17.20;;
30173;SDS011;16985;50.814;8.530;2022-11-20T05:47:25;25.95;;;17.13;;
30173;SDS011;16985;50.814;8.530;2022-11-20T05:49:53;25.73;;;15.75;;
30173;SDS011;16985;50.814;8.530;2022-11-20T05:52:19;31.65;;;18.15;;
30173;SDS011;16985;50.814;8.530;2022-11-20T05:54:45;33.40;;;18.20;;
30173;SDS011;16985;50.814;8.530;2022-11-20T05:57:12;31.75;;;17.13;;
30173;SDS011;16985;50.814;8.530;2022-11-20T05:59:38;33.90;;;17.77;;
30173;SDS011;16985;50.814;8.530;2022-11-20T06:02:04;32.90;;;18.52;;
30173;SDS011;16985;50.814;8.530;2022-11-20T06:04:29;31.50;;;18.48;;
30173;SDS011;16985;50.814;8.530;2022-11-20T06:06:56;30.92;;;17.88;;
30173;SDS011;16985;50.814;8.530;2022-11-20T06:09:22;29.27;;;17.05;;
30173;SDS011;16985;50.814;8.530;2022-11-20T06:11:48;33.42;;;19.20;;
30173;SDS011;16985;50.814;8.530;2022-11-20T06:14:14;32.58;;;17.38;;
30173;SDS011;16985;50.814;8.530;2022-11-20T06:16:40;29.48;;;18.90;;
30173;SDS011;16985;50.814;8.530;2022-11-20T06:19:06;32.03;;;16.92;;
30173;SDS011;16985;50.814;8.530;2022-11-20T06:21:32;36.67;;;18.52;;
30173;SDS011;16985;50.814;8.530;2022-11-20T06:23:58;32.85;;;17.98;;
30173;SDS011;16985;50.814;8.530;2022-11-20T06:26:25;29.20;;;18.15;;
30173;SDS011;16985;50.814;8.530;2022-11-20T06:28:52;32.88;;;18.77;;
30173;SDS011;16985;50.814;8.530;2022-11-20T06:33:48;33.70;;;17.83;;
30173;SDS011;16985;50.814;8.530;2022-11-20T06:36:15;29.95;;;17.27;;
30173;SDS011;16985;50.814;8.530;2022-11-20T06:38:44;36.00;;;19.88;;
30173;SDS011;16985;50.814;8.530;2022-11-20T06:41:12;31.48;;;18.00;;
30173;SDS011;16985;50.814;8.530;2022-11-20T06:43:43;36.33;;;19.05;;
30173;SDS011;16985;50.814;8.530;2022-11-20T06:46:10;36.08;;;19.70;;
30173;SDS011;16985;50.814;8.530;2022-11-20T06:48:37;37.90;;;18.75;;
30173;SDS011;16985;50.814;8.530;2022-11-20T06:51:04;35.05;;;18.40;;
30173;SDS011;16985;50.814;8.530;2022-11-20T06:53:32;31.88;;;17.42;;
30173;SDS011;16985;50.814;8.530;2022-11-20T06:55:59;32.17;;;17.35;;
30173;SDS011;16985;50.814;8.530;2022-11-20T06:58:28;32.88;;;17.35;;
30173;SDS011;16985;50.814;8.530;2022-11-20T07:01:00;34.03;;;18.88;;
30173;SDS011;16985;50.814;8.530;2022-11-20T07:03:28;30.48;;;17.25;;
30173;SDS011;16985;50.814;8.530;2022-11-20T07:05:57;35.50;;;19.80;;
30173;SDS011;16985;50.814;8.530;2022-11-20T07:08:24;29.92;;;18.20;;
30173;SDS011;16985;50.814;8.530;2022-11-20T07:10:50;32.97;;;18.70;;
30173;SDS011;16985;50.814;8.530;2022-11-20T07:13:16;33.78;;;18.45;;
30173;SDS011;16985;50.814;8.530;2022-11-20T07:15:42;32.65;;;19.17;;
30173;SDS011;16985;50.814;8.530;2022-11-20T07:18:09;34.40;;;17.92;;
30173;SDS011;16985;50.814;8.530;2022-11-20T07:20:35;30.70;;;18.75;;
30173;SDS011;16985;50.814;8.530;2022-11-20T07:23:01;35.45;;;18.88;;
30173;SDS011;16985;50.814;8.530;2022-11-20T07:25:28;34.90;;;18.75;;
30173;SDS011;16985;50.814;8.530;2022-11-20T07:28:00;38.40;;;19.40;;
30173;SDS011;16985;50.814;8.530;2022-11-20T07:30:27;35.17;;;18.63;;
30173;SDS011;16985;50.814;8.530;2022-11-20T07:32:53;30.52;;;18.45;;
30173;SDS011;16985;50.814;8.530;2022-11-20T07:35:21;34.05;;;17.73;;
30173;SDS011;16985;50.814;8.530;2022-11-20T07:37:48;36.53;;;18.10;;
30173;SDS011;16985;50.814;8.530;2022-11-20T07:40:15;32.70;;;18.60;;
30173;SDS011;16985;50.814;8.530;2022-11-20T07:42:51;36.45;;;18.30;;
30173;SDS011;16985;50.814;8.530;2022-11-20T07:45:19;32.40;;;18.15;;
30173;SDS011;16985;50.814;8.530;2022-11-20T07:47:47;35.25;;;18.38;;
30173;SDS011;16985;50.814;8.530;2022-11-20T07:50:13;43.30;;;21.38;;
30173;SDS011;16985;50.814;8.530;2022-11-20T07:52:39;45.78;;;21.83;;
30173;SDS011;16985;50.814;8.530;2022-11-20T07:55:06;43.58;;;22.15;;
30173;SDS011;16985;50.814;8.530;2022-11-20T07:57:32;43.78;;;22.50;;
30173;SDS011;16985;50.814;8.530;2022-11-20T07:59:59;44.85;;;24.10;;
30173;SDS011;16985;50.814;8.530;2022-11-20T08:02:24;45.13;;;21.73;;
30173;SDS011;16985;50.814;8.530;2022-11-20T08:04:50;41.85;;;21.55;;
30173;SDS011;16985;50.814;8.530;2022-11-20T08:07:16;38.70;;;20.27;;
30173;SDS011;16985;50.814;8.530;2022-11-20T08:09:42;43.03;;;20.88;;
30173;SDS011;16985;50.814;8.530;2022-11-20T08:12:10;43.00;;;20.50;;
30173;SDS011;16985;50.814;8.530;2022-11-20T08:15:03;39.97;;;21.02;;
30173;SDS011;16985;50.814;8.530;2022-11-20T08:17:30;41.93;;;22.47;;
30173;SDS011;16985;50.814;8.530;2022-11-20T08:19:56;38.60;;;20.20;;
30173;SDS011;16985;50.814;8.530;2022-11-20T08:22:23;44.55;;;22.48;;
30173;SDS011;16985;50.814;8.530;2022-11-20T08:24:50;49.55;;;22.48;;
30173;SDS011;16985;50.814;8.530;2022-11-20T08:27:16;45.65;;;23.10;;
30173;SDS011;16985;50.814;8.530;2022-11-20T08:29:42;46.60;;;22.80;;
30173;SDS011;16985;50.814;8.530;2022-11-20T08:32:08;46.78;;;23.70;;
30173;SDS011;16985;50.814;8.530;2022-11-20T08:34:34;42.72;;;22.05;;
30173;SDS011;16985;50.814;8.530;2022-11-20T08:37:01;50.13;;;23.60;;
30173;SDS011;16985;50.814;8.530;2022-11-20T08:39:27;43.70;;;22.92;;
30173;SDS011;16985;50.814;8.530;2022-11-20T08:41:54;45.67;;;22.02;;
30173;SDS011;16985;50.814;8.530;2022-11-20T08:44:20;48.00;;;23.10;;
30173;SDS011;16985;50.814;8.530;2022-11-20T08:46:46;48.28;;;22.58;;
30173;SDS011;16985;50.814;8.530;2022-11-20T08:49:14;48.67;;;22.98;;
30173;SDS011;16985;50.814;8.530;2022-11-20T08:51:41;42.67;;;23.27;;
30173;SDS011;16985;50.814;8.530;2022-11-20T08:54:07;38.95;;;20.77;;
30173;SDS011;16985;50.814;8.530;2022-11-20T08:56:33;51.22;;;22.27;;
30173;SDS011;16985;50.814;8.530;2022-11-20T08:59:00;44.17;;;23.00;;
30173;SDS011;16985;50.814;8.530;2022-11-20T09:01:26;41.85;;;22.85;;
30173;SDS011;16985;50.814;8.530;2022-11-20T09:03:55;48.65;;;22.52;;
30173;SDS011;16985;50.814;8.530;2022-11-20T09:06:25;45.22;;;23.40;;
30173;SDS011;16985;50.814;8.530;2022-11-20T09:08:53;47.53;;;22.40;;
30173;SDS011;16985;50.814;8.530;2022-11-20T09:11:20;51.35;;;24.90;;
30173;SDS011;16985;50.814;8.530;2022-11-20T09:13:46;47.90;;;22.48;;
30173;SDS011;16985;50.814;8.530;2022-11-20T09:16:12;47.92;;;23.45;;
30173;SDS011;16985;50.814;8.530;2022-11-20T09:18:39;48.13;;;24.50;;
30173;SDS011;16985;50.814;8.530;2022-11-20T09:21:05;56.25;;;26.27;;
30173;SDS011;16985;50.814;8.530;2022-11-20T09:23:36;68.63;;;30.50;;
30173;SDS011;16985;50.814;8.530;2022-11-20T09:26:06;69.90;;;30.75;;
30173;SDS011;16985;50.814;8.530;2022-11-20T09:28:35;65.05;;;31.90;;
30173;SDS011;16985;50.814;8.530;2022-11-20T09:31:08;65.47;;;32.40;;
30173;SDS011;16985;50.814;8.530;2022-11-20T09:33:48;70.45;;;32.10;;
30173;SDS011;16985;50.814;8.530;2022-11-20T09:36:14;65.60;;;32.03;;
30173;SDS011;16985;50.814;8.530;2022-11-20T09:38:41;57.50;;;29.87;;
30173;SDS011;16985;50.814;8.530;2022-11-20T09:41:10;65.18;;;31.80;;
30173;SDS011;16985;50.814;8.530;2022-11-20T09:50:07;58.88;;;28.55;;
30173;SDS011;16985;50.814;8.530;2022-11-20T09:55:54;58.42;;;25.92;;
30173;SDS011;16985;50.814;8.530;2022-11-20T10:00:51;58.75;;;25.80;;
30173;SDS011;16985;50.814;8.530;2022-11-20T10:03:24;46.22;;;24.92;;
30173;SDS011;16985;50.814;8.530;2022-11-20T10:06:08;46.88;;;23.95;;
30173;SDS011;16985;50.814;8.530;2022-11-20T10:08:41;52.75;;;25.08;;
30173;SDS011;16985;50.814;8.530;2022-11-20T10:11:39;46.15;;;24.15;;
30173;SDS011;16985;50.814;8.530;2022-11-20T10:14:32;40.20;;;19.48;;
30173;SDS011;16985;50.814;8.530;2022-11-20T10:20:46;33.80;;;16.58;;
30173;SDS011;16985;50.814;8.530;2022-11-20T10:23:52;28.80;;;16.20;;
30173;SDS011;16985;50.814;8.530;2022-11-20T10:26:47;24.60;;;14.82;;
30173;SDS011;16985;50.814;8.530;2022-11-20T10:29:33;30.77;;;17.08;;
30173;SDS011;16985;50.814;8.530;2022-11-20T10:32:03;36.22;;;18.17;;
30173;SDS011;16985;50.814;8.530;2022-11-20T10:34:57;28.05;;;14.88;;
30173;SDS011;16985;50.814;8.530;2022-11-20T10:37:51;26.17;;;14.63;;
30173;SDS011;16985;50.814;8.530;2022-11-20T10:40:28;29.42;;;14.20;;
30173;SDS011;16985;50.814;8.530;2022-11-20T10:43:32;23.27;;;14.70;;
30173;SDS011;16985;50.814;8.530;2022-11-20T10:46:00;30.52;;;15.32;;
30173;SDS011;16985;50.814;8.530;2022-11-20T10:48:31;28.45;;;14.77;;
30173;SDS011;16985;50.814;8.530;2022-11-20T10:51:15;28.02;;;15.20;;
30173;SDS011;16985;50.814;8.530;2022-11-20T10:56:46;33.95;;;15.18;;
30173;SDS011;16985;50.814;8.530;2022-11-20T11:02:20;22.27;;;13.73;;
30173;SDS011;16985;50.814;8.530;2022-11-20T11:04:51;27.80;;;14.00;;
30173;SDS011;16985;50.814;8.530;2022-11-20T11:07:23;22.85;;;13.90;;
30173;SDS011;16985;50.814;8.530;2022-11-20T11:09:56;25.25;;;14.48;;
30173;SDS011;16985;50.814;8.530;2022-11-20T11:12:26;25.63;;;14.75;;
30173;SDS011;16985;50.814;8.530;2022-11-20T11:14:54;36.15;;;17.83;;
30173;SDS011;16985;50.814;8.530;2022-11-20T11:17:24;27.92;;;13.73;;
30173;SDS011;16985;50.814;8.530;2022-11-20T11:20:05;26.35;;;14.68;;
30173;SDS011;16985;50.814;8.530;2022-11-20T11:22:52;27.90;;;15.13;;
30173;SDS011;16985;50.814;8.530;2022-11-20T11:27:47;25.60;;;14.57;;
30173;SDS011;16985;50.814;8.530;2022-11-20T11:30:15;27.05;;;14.75;;
30173;SDS011;16985;50.814;8.530;2022-11-20T11:32:44;26.17;;;14.65;;
30173;SDS011;16985;50.814;8.530;2022-11-20T11:35:20;23.13;;;13.35;;
30173;SDS011;16985;50.814;8.530;2022-11-20T11:37:49;23.50;;;13.60;;
30173;SDS011;16985;50.814;8.530;2022-11-20T11:40:18;27.95;;;14.57;;
30173;SDS011;16985;50.814;8.530;2022-11-20T11:43:02;23.13;;;12.50;;
30173;SDS011;16985;50.814;8.530;2022-11-20T11:45:54;21.35;;;12.40;;
30173;SDS011;16985;50.814;8.530;2022-11-20T11:48:21;20.67;;;12.18;;
30173;SDS011;16985;50.814;8.530;2022-11-20T11:50:48;21.67;;;12.93;;
30173;SDS011;16985;50.814;8.530;2022-11-20T11:53:19;23.73;;;12.50;;
30173;SDS011;16985;50.814;8.530;2022-11-20T12:01:04;23.75;;;12.32;;
30173;SDS011;16985;50.814;8.530;2022-11-20T12:04:17;22.13;;;13.23;;
30173;SDS011;16985;50.814;8.530;2022-11-20T12:09:57;20.92;;;12.57;;
30173;SDS011;16985;50.814;8.530;2022-11-20T12:12:32;18.40;;;11.57;;
30173;SDS011;16985;50.814;8.530;2022-11-20T12:15:08;23.35;;;14.20;;
30173;SDS011;16985;50.814;8.530;2022-11-20T12:17:38;21.77;;;12.43;;
30173;SDS011;16985;50.814;8.530;2022-11-20T12:20:10;19.50;;;12.45;;
30173;SDS011;16985;50.814;8.530;2022-11-20T12:25:32;25.23;;;12.18;;
30173;SDS011;16985;50.814;8.530;2022-11-20T12:30:39;24.83;;;13.90;;
30173;SDS011;16985;50.814;8.530;2022-11-20T12:36:04;24.63;;;13.57;;
30173;SDS011;16985;50.814;8.530;2022-11-20T12:39:13;22.75;;;13.48;;
30173;SDS011;16985;50.814;8.530;2022-11-20T12:47:58;21.98;;;12.93;;
30173;SDS011;16985;50.814;8.530;2022-11-20T13:08:29;29.05;;;14.73;;
30173;SDS011;16985;50.814;8.530;2022-11-20T13:16:52;21.48;;;13.07;;
30173;SDS011;16985;50.814;8.530;2022-11-20T13:19:33;28.02;;;15.25;;
30173;SDS011;16985;50.814;8.530;2022-11-20T13:22:00;22.15;;;13.20;;
30173;SDS011;16985;50.814;8.530;2022-11-20T13:24:27;22.00;;;13.57;;
30173;SDS011;16985;50.814;8.530;2022-11-20T13:29:33;25.70;;;14.52;;
30173;SDS011;16985;50.814;8.530;2022-11-20T13:32:05;28.20;;;15.25;;
30173;SDS011;16985;50.814;8.530;2022-11-20T13:34:55;28.88;;;15.95;;
30173;SDS011;16985;50.814;8.530;2022-11-20T13:42:35;28.83;;;16.70;;
30173;SDS011;16985;50.814;8.530;2022-11-20T13:45:21;27.33;;;15.15;;
30173;SDS011;16985;50.814;8.530;2022-11-20T13:47:53;25.55;;;15.20;;
30173;SDS011;16985;50.814;8.530;2022-11-20T13:50:21;31.73;;;17.20;;
30173;SDS011;16985;50.814;8.530;2022-11-20T13:55:40;26.85;;;15.95;;
30173;SDS011;16985;50.814;8.530;2022-11-20T14:01:25;24.38;;;13.52;;
30173;SDS011;16985;50.814;8.530;2022-11-20T14:03:58;30.00;;;15.30;;
30173;SDS011;16985;50.814;8.530;2022-11-20T14:06:31;24.00;;;14.07;;
30173;SDS011;16985;50.814;8.530;2022-11-20T14:09:05;23.80;;;13.93;;
30173;SDS011;16985;50.814;8.530;2022-11-20T14:11:53;29.73;;;15.55;;
30173;SDS011;16985;50.814;8.530;2022-11-20T14:14:21;27.52;;;15.93;;
30173;SDS011;16985;50.814;8.530;2022-11-20T14:16:52;22.67;;;14.10;;
30173;SDS011;16985;50.814;8.530;2022-11-20T14:19:29;32.08;;;16.13;;
30173;SDS011;16985;50.814;8.530;2022-11-20T14:24:49;27.77;;;16.30;;
30173;SDS011;16985;50.814;8.530;2022-11-20T14:27:32;36.10;;;18.58;;
30173;SDS011;16985;50.814;8.530;2022-11-20T14:30:03;30.70;;;16.77;;
30173;SDS011;16985;50.814;8.530;2022-11-20T14:32:30;39.35;;;20.00;;
30173;SDS011;16985;50.814;8.530;2022-11-20T14:34:59;35.60;;;19.98;;
30173;SDS011;16985;50.814;8.530;2022-11-20T14:37:35;37.35;;;18.45;;
30173;SDS011;16985;50.814;8.530;2022-11-20T14:40:05;35.72;;;18.20;;
30173;SDS011;16985;50.814;8.530;2022-11-20T14:42:47;35.47;;;19.05;;
30173;SDS011;16985;50.814;8.530;2022-11-20T14:45:13;36.75;;;18.73;;
30173;SDS011;16985;50.814;8.530;2022-11-20T14:47:40;34.70;;;18.80;;
30173;SDS011;16985;50.814;8.530;2022-11-20T14:50:19;36.45;;;19.08;;
30173;SDS011;16985;50.814;8.530;2022-11-20T14:52:57;34.90;;;18.50;;
30173;SDS011;16985;50.814;8.530;2022-11-20T14:57:58;34.97;;;18.52;;
30173;SDS011;16985;50.814;8.530;2022-11-20T15:00:30;37.22;;;18.73;;
30173;SDS011;16985;50.814;8.530;2022-11-20T15:02:57;36.40;;;20.40;;
30173;SDS011;16985;50.814;8.530;2022-11-20T15:05:25;36.33;;;20.50;;
30173;SDS011;16985;50.814;8.530;2022-11-20T15:08:10;31.95;;;17.95;;
30173;SDS011;16985;50.814;8.530;2022-11-20T15:10:37;37.03;;;19.10;;
30173;SDS011;16985;50.814;8.530;2022-11-20T15:13:13;33.97;;;18.35;;
30173;SDS011;16985;50.814;8.530;2022-11-20T15:15:49;33.92;;;17.88;;
30173;SDS011;16985;50.814;8.530;2022-11-20T15:18:18;38.33;;;20.08;;
30173;SDS011;16985;50.814;8.530;2022-11-20T15:20:47;34.70;;;19.08;;
30173;SDS011;16985;50.814;8.530;2022-11-20T15:23:15;35.28;;;18.92;;
30173;SDS011;16985;50.814;8.530;2022-11-20T15:25:43;38.53;;;19.90;;
30173;SDS011;16985;50.814;8.530;2022-11-20T15:28:13;39.67;;;20.20;;
30173;SDS011;16985;50.814;8.530;2022-11-20T15:30:40;37.40;;;18.80;;
30173;SDS011;16985;50.814;8.530;2022-11-20T15:33:08;38.30;;;19.67;;
30173;SDS011;16985;50.814;8.530;2022-11-20T15:35:35;35.38;;;19.67;;
30173;SDS011;16985;50.814;8.530;2022-11-20T15:38:01;44.38;;;20.75;;
30173;SDS011;16985;50.814;8.530;2022-11-20T15:40:27;33.60;;;17.73;;
30173;SDS011;16985;50.814;8.530;2022-11-20T15:42:53;37.30;;;19.05;;
30173;SDS011;16985;50.814;8.530;2022-11-20T15:45:48;39.90;;;20.10;;
30173;SDS011;16985;50.814;8.530;2022-11-20T15:48:23;43.85;;;22.60;;
30173;SDS011;16985;50.814;8.530;2022-11-20T15:51:04;42.78;;;20.75;;
30173;SDS011;16985;50.814;8.530;2022-11-20T15:53:34;42.90;;;20.43;;
30173;SDS011;16985;50.814;8.530;2022-11-20T15:56:18;43.03;;;22.08;;
30173;SDS011;16985;50.814;8.530;2022-11-20T15:58:47;42.28;;;22.13;;
30173;SDS011;16985;50.814;8.530;2022-11-20T16:01:14;50.17;;;23.70;;
30173;SDS011;16985;50.814;8.530;2022-11-20T16:03:43;47.92;;;22.75;;
30173;SDS011;16985;50.814;8.530;2022-11-20T16:06:09;51.38;;;24.38;;
30173;SDS011;16985;50.814;8.530;2022-11-20T16:08:35;44.33;;;23.10;;
30173;SDS011;16985;50.814;8.530;2022-11-20T16:13:30;49.55;;;24.10;;
30173;SDS011;16985;50.814;8.530;2022-11-20T16:18:48;52.65;;;25.38;;
30173;SDS011;16985;50.814;8.530;2022-11-20T16:21:14;50.10;;;24.25;;
30173;SDS011;16985;50.814;8.530;2022-11-20T16:23:41;48.40;;;24.77;;
30173;SDS011;16985;50.814;8.530;2022-11-20T16:26:11;51.28;;;25.10;;
30173;SDS011;16985;50.814;8.530;2022-11-20T16:28:39;57.05;;;26.65;;